Irving, TX (75014)

2:23 PM CST on February 13, 2016 (GMT -0600)
Toler Lane, Irving, Texas USA | | Change Station
CLOSE
Current Station
Personal Weather Station
Location: Irving, TX
Elevation: 551 ft
Nearby Weather Stations
Active Advisory: Flood Warning

Elev 551 ft 32.84 °N, 96.96 °W | Updated 18 seconds ago

Clear
Clear
64.3 °F
Feels Like 64.3 °F
N
9.2
Wind Variable Wind from SSE
Gusts 9.2 mph

Today
High -- | Low -- °F
--% Chance of Precip.
Yesterday
High -- | Low -- °F
Precip. -- in
Pressure 30.26 in
Visibility 10.0 miles
Clouds Few 3000 ft
Few 25000 ft
Dew Point 42 °F
Humidity 45%
Rainfall 0.00 in
Snow Depth Not available.
7:13 AM 6:11 PM
Waxing Crescent, 34% visible
METAR KDFW 131953Z 12008G15KT 10SM FEW030 FEW250 17/03 A3026 RMK AO2 SLP245 FU FEW030 T01720028
Pressure 30.26 in
Visibility 10.0 miles
Clouds Few 3000 ft
Few 25000 ft
Dew Point 42 °F
Humidity 45%
Rainfall 0.00 in
Snow Depth Not available.
7:13 AM 6:11 PM
Waxing Crescent, 34% visible
METAR KDFW 131953Z 12008G15KT 10SM FEW030 FEW250 17/03 A3026 RMK AO2 SLP245 FU FEW030 T01720028

10-Day Weather Forecast

Almanac

Astronomy

Feb. 13, 2016 Rise Set
Actual Time
Civil Twilight
Nautical Twilight
Astronomical Twilight
Moon
Length of Visible Light
Length of Day
Tomorrow will be .
, % of the Moon is Illuminated

Today's Extremes

State Highs State Lows

Community

WunderPhotos

Upload Photos

1,892,658 photos uploaded!

WunderBlog® & News

Nearby

Air Quality

  Air Quality AQ Index Pollutant
Not available.

Snow Depth

Station Depth Elevation

Earthquake Activity

City Distance Mag. Time & Date
Minimum magnitude displayed is 2.5.

Coastal Water Temperatures

Place Temperature

Stations

Nearby Weather Stations

Station Location Temp. Windchill Dew Point Humidity Wind Precip. Elev Updated Type
                   

Watches & Warnings

Flood Warning
Issued: 8:10 AM CST Feb. 13, 2016 – National Weather Service

The Flood Warning continues for
the Elm Fork Trinity River near Carrollton.
* At 0715 am Saturday the stage was 8.36 feet.
* Flood stage is 8 feet.
* Minor flooding is occurring and minor flooding is forecast.
* Forecast... the river will remain near 8 feet for the next several
days.
* At 8 feet, minor flooding will occur downstream from the gauge.


Lat... Lon 3300 9700 3287 9699 3287 9687 3300 9688